sensor_id;sensor_type;location;lat;lon;timestamp;P1;durP1;ratioP1;P2;durP2;ratioP2
19024;SDS011;9645;51.448;6.260;2022-07-04T00:01:43;4.07;;;3.47;;
19024;SDS011;9645;51.448;6.260;2022-07-04T00:04:10;4.00;;;3.60;;
19024;SDS011;9645;51.448;6.260;2022-07-04T00:06:37;7.90;;;2.77;;
19024;SDS011;9645;51.448;6.260;2022-07-04T00:09:06;7.17;;;3.40;;
19024;SDS011;9645;51.448;6.260;2022-07-04T00:11:33;6.03;;;3.23;;
19024;SDS011;9645;51.448;6.260;2022-07-04T00:14:00;6.03;;;3.60;;
19024;SDS011;9645;51.448;6.260;2022-07-04T00:16:27;7.10;;;3.53;;
19024;SDS011;9645;51.448;6.260;2022-07-04T00:18:53;5.93;;;3.20;;
19024;SDS011;9645;51.448;6.260;2022-07-04T00:21:22;7.00;;;3.50;;
19024;SDS011;9645;51.448;6.260;2022-07-04T00:23:49;4.40;;;3.63;;
19024;SDS011;9645;51.448;6.260;2022-07-04T00:26:17;6.77;;;3.60;;
19024;SDS011;9645;51.448;6.260;2022-07-04T00:28:44;5.20;;;3.50;;
19024;SDS011;9645;51.448;6.260;2022-07-04T00:31:11;6.80;;;3.40;;
19024;SDS011;9645;51.448;6.260;2022-07-04T00:33:38;5.70;;;3.47;;
19024;SDS011;9645;51.448;6.260;2022-07-04T00:36:05;6.07;;;3.43;;
19024;SDS011;9645;51.448;6.260;2022-07-04T00:38:33;6.43;;;3.40;;
19024;SDS011;9645;51.448;6.260;2022-07-04T00:41:00;4.00;;;3.10;;
19024;SDS011;9645;51.448;6.260;2022-07-04T00:43:28;3.50;;;3.07;;
19024;SDS011;9645;51.448;6.260;2022-07-04T00:45:56;10.00;;;4.43;;
19024;SDS011;9645;51.448;6.260;2022-07-04T00:48:23;9.33;;;4.00;;
19024;SDS011;9645;51.448;6.260;2022-07-04T00:50:50;11.90;;;4.17;;
19024;SDS011;9645;51.448;6.260;2022-07-04T00:53:18;8.97;;;4.63;;
19024;SDS011;9645;51.448;6.260;2022-07-04T00:55:47;6.15;;;4.15;;
19024;SDS011;9645;51.448;6.260;2022-07-04T00:58:15;6.60;;;4.60;;
19024;SDS011;9645;51.448;6.260;2022-07-04T01:00:47;12.43;;;4.75;;
19024;SDS011;9645;51.448;6.260;2022-07-04T01:03:15;6.27;;;4.60;;
19024;SDS011;9645;51.448;6.260;2022-07-04T01:05:42;9.23;;;4.13;;
19024;SDS011;9645;51.448;6.260;2022-07-04T01:08:10;9.50;;;4.95;;
19024;SDS011;9645;51.448;6.260;2022-07-04T01:10:38;7.38;;;4.65;;
19024;SDS011;9645;51.448;6.260;2022-07-04T01:13:05;6.97;;;4.55;;
19024;SDS011;9645;51.448;6.260;2022-07-04T01:15:32;9.70;;;5.00;;
19024;SDS011;9645;51.448;6.260;2022-07-04T01:18:00;14.90;;;4.60;;
19024;SDS011;9645;51.448;6.260;2022-07-04T01:20:34;8.15;;;4.72;;
19024;SDS011;9645;51.448;6.260;2022-07-04T01:23:02;12.07;;;4.85;;
19024;SDS011;9645;51.448;6.260;2022-07-04T01:25:29;7.88;;;4.57;;
19024;SDS011;9645;51.448;6.260;2022-07-04T01:27:57;6.72;;;4.70;;
19024;SDS011;9645;51.448;6.260;2022-07-04T01:30:25;10.53;;;5.07;;
19024;SDS011;9645;51.448;6.260;2022-07-04T01:32:52;7.45;;;4.05;;
19024;SDS011;9645;51.448;6.260;2022-07-04T01:35:19;14.45;;;5.22;;
19024;SDS011;9645;51.448;6.260;2022-07-04T01:37:48;9.52;;;5.32;;
19024;SDS011;9645;51.448;6.260;2022-07-04T01:40:15;13.32;;;5.25;;
19024;SDS011;9645;51.448;6.260;2022-07-04T01:42:42;6.97;;;5.38;;
19024;SDS011;9645;51.448;6.260;2022-07-04T01:45:10;7.63;;;4.88;;
19024;SDS011;9645;51.448;6.260;2022-07-04T01:47:38;10.82;;;5.40;;
19024;SDS011;9645;51.448;6.260;2022-07-04T01:50:07;6.78;;;5.05;;
19024;SDS011;9645;51.448;6.260;2022-07-04T01:52:37;8.25;;;4.90;;
19024;SDS011;9645;51.448;6.260;2022-07-04T01:55:06;13.02;;;5.65;;
19024;SDS011;9645;51.448;6.260;2022-07-04T01:57:34;14.63;;;6.07;;
19024;SDS011;9645;51.448;6.260;2022-07-04T02:00:02;12.55;;;5.05;;
19024;SDS011;9645;51.448;6.260;2022-07-04T02:02:58;10.30;;;5.40;;
19024;SDS011;9645;51.448;6.260;2022-07-04T02:05:25;8.60;;;5.53;;
19024;SDS011;9645;51.448;6.260;2022-07-04T02:07:53;9.20;;;5.22;;
19024;SDS011;9645;51.448;6.260;2022-07-04T02:10:21;14.68;;;6.35;;
19024;SDS011;9645;51.448;6.260;2022-07-04T02:12:49;9.10;;;5.15;;
19024;SDS011;9645;51.448;6.260;2022-07-04T02:15:27;12.95;;;6.40;;
19024;SDS011;9645;51.448;6.260;2022-07-04T02:17:54;9.93;;;5.35;;
19024;SDS011;9645;51.448;6.260;2022-07-04T02:20:22;12.45;;;6.05;;
19024;SDS011;9645;51.448;6.260;2022-07-04T02:22:49;10.75;;;5.82;;
19024;SDS011;9645;51.448;6.260;2022-07-04T02:25:16;9.98;;;6.00;;
19024;SDS011;9645;51.448;6.260;2022-07-04T02:27:45;13.15;;;6.78;;
19024;SDS011;9645;51.448;6.260;2022-07-04T02:30:12;16.92;;;7.15;;
19024;SDS011;9645;51.448;6.260;2022-07-04T02:32:39;12.57;;;6.55;;
19024;SDS011;9645;51.448;6.260;2022-07-04T02:35:07;13.32;;;6.70;;
19024;SDS011;9645;51.448;6.260;2022-07-04T02:37:35;10.68;;;6.00;;
19024;SDS011;9645;51.448;6.260;2022-07-04T02:40:03;19.80;;;7.10;;
19024;SDS011;9645;51.448;6.260;2022-07-04T02:42:31;13.18;;;6.70;;
19024;SDS011;9645;51.448;6.260;2022-07-04T02:45:00;14.82;;;7.38;;
19024;SDS011;9645;51.448;6.260;2022-07-04T02:47:28;20.90;;;6.90;;
19024;SDS011;9645;51.448;6.260;2022-07-04T02:49:55;13.98;;;7.88;;
19024;SDS011;9645;51.448;6.260;2022-07-04T02:52:22;15.48;;;8.20;;
19024;SDS011;9645;51.448;6.260;2022-07-04T02:54:49;18.00;;;8.35;;
19024;SDS011;9645;51.448;6.260;2022-07-04T02:57:17;14.85;;;8.35;;
19024;SDS011;9645;51.448;6.260;2022-07-04T02:59:44;19.55;;;8.07;;
19024;SDS011;9645;51.448;6.260;2022-07-04T03:02:13;18.77;;;7.82;;
19024;SDS011;9645;51.448;6.260;2022-07-04T03:04:40;19.55;;;8.48;;
19024;SDS011;9645;51.448;6.260;2022-07-04T03:07:07;12.30;;;7.25;;
19024;SDS011;9645;51.448;6.260;2022-07-04T03:09:34;16.73;;;7.68;;
19024;SDS011;9645;51.448;6.260;2022-07-04T03:12:01;16.90;;;7.53;;
19024;SDS011;9645;51.448;6.260;2022-07-04T03:14:29;18.45;;;7.53;;
19024;SDS011;9645;51.448;6.260;2022-07-04T03:16:56;14.32;;;7.03;;
19024;SDS011;9645;51.448;6.260;2022-07-04T03:19:24;14.05;;;6.63;;
19024;SDS011;9645;51.448;6.260;2022-07-04T03:21:51;15.88;;;7.15;;
19024;SDS011;9645;51.448;6.260;2022-07-04T03:24:18;12.30;;;6.18;;
19024;SDS011;9645;51.448;6.260;2022-07-04T03:26:45;23.85;;;6.40;;
19024;SDS011;9645;51.448;6.260;2022-07-04T03:29:12;11.00;;;6.40;;
19024;SDS011;9645;51.448;6.260;2022-07-04T03:31:39;12.20;;;6.68;;
19024;SDS011;9645;51.448;6.260;2022-07-04T03:34:06;18.80;;;6.72;;
19024;SDS011;9645;51.448;6.260;2022-07-04T03:36:35;13.98;;;6.10;;
19024;SDS011;9645;51.448;6.260;2022-07-04T03:39:02;13.00;;;6.63;;
19024;SDS011;9645;51.448;6.260;2022-07-04T03:41:29;11.48;;;5.65;;
19024;SDS011;9645;51.448;6.260;2022-07-04T03:43:56;11.10;;;5.57;;
19024;SDS011;9645;51.448;6.260;2022-07-04T03:46:23;15.07;;;5.63;;
19024;SDS011;9645;51.448;6.260;2022-07-04T03:48:50;8.80;;;5.13;;
19024;SDS011;9645;51.448;6.260;2022-07-04T03:51:17;12.15;;;5.70;;
19024;SDS011;9645;51.448;6.260;2022-07-04T03:53:45;10.70;;;5.70;;
19024;SDS011;9645;51.448;6.260;2022-07-04T03:56:12;10.48;;;5.53;;
19024;SDS011;9645;51.448;6.260;2022-07-04T03:58:40;11.63;;;6.20;;
19024;SDS011;9645;51.448;6.260;2022-07-04T04:01:07;9.93;;;5.50;;
19024;SDS011;9645;51.448;6.260;2022-07-04T04:03:34;12.05;;;6.00;;
19024;SDS011;9645;51.448;6.260;2022-07-04T04:06:19;9.60;;;5.60;;
19024;SDS011;9645;51.448;6.260;2022-07-04T04:08:48;13.57;;;6.22;;
19024;SDS011;9645;51.448;6.260;2022-07-04T04:11:15;16.42;;;6.10;;
19024;SDS011;9645;51.448;6.260;2022-07-04T04:13:42;12.77;;;5.88;;
19024;SDS011;9645;51.448;6.260;2022-07-04T04:16:09;8.18;;;4.93;;
19024;SDS011;9645;51.448;6.260;2022-07-04T04:18:36;10.38;;;5.53;;
19024;SDS011;9645;51.448;6.260;2022-07-04T04:21:03;10.95;;;5.40;;
19024;SDS011;9645;51.448;6.260;2022-07-04T04:23:30;11.25;;;5.90;;
19024;SDS011;9645;51.448;6.260;2022-07-04T04:26:01;11.15;;;5.50;;
19024;SDS011;9645;51.448;6.260;2022-07-04T04:28:31;11.02;;;4.90;;
19024;SDS011;9645;51.448;6.260;2022-07-04T04:30:58;8.98;;;5.05;;
19024;SDS011;9645;51.448;6.260;2022-07-04T04:33:25;7.28;;;4.45;;
19024;SDS011;9645;51.448;6.260;2022-07-04T04:35:52;8.43;;;4.50;;
19024;SDS011;9645;51.448;6.260;2022-07-04T04:38:19;15.00;;;5.68;;
19024;SDS011;9645;51.448;6.260;2022-07-04T04:40:47;8.30;;;4.95;;
19024;SDS011;9645;51.448;6.260;2022-07-04T04:43:16;12.95;;;5.28;;
19024;SDS011;9645;51.448;6.260;2022-07-04T04:45:43;8.48;;;5.30;;
19024;SDS011;9645;51.448;6.260;2022-07-04T04:48:10;8.00;;;5.22;;
19024;SDS011;9645;51.448;6.260;2022-07-04T04:50:37;12.52;;;5.30;;
19024;SDS011;9645;51.448;6.260;2022-07-04T04:53:04;11.68;;;4.80;;
19024;SDS011;9645;51.448;6.260;2022-07-04T04:55:31;8.65;;;5.35;;
19024;SDS011;9645;51.448;6.260;2022-07-04T04:57:58;14.13;;;6.00;;
19024;SDS011;9645;51.448;6.260;2022-07-04T05:00:27;9.20;;;4.80;;
19024;SDS011;9645;51.448;6.260;2022-07-04T05:02:54;10.75;;;5.75;;
19024;SDS011;9645;51.448;6.260;2022-07-04T05:05:21;10.02;;;5.63;;
19024;SDS011;9645;51.448;6.260;2022-07-04T05:07:48;10.93;;;5.73;;
19024;SDS011;9645;51.448;6.260;2022-07-04T05:10:15;9.98;;;5.53;;
19024;SDS011;9645;51.448;6.260;2022-07-04T05:12:43;9.40;;;5.23;;
19024;SDS011;9645;51.448;6.260;2022-07-04T05:15:11;9.17;;;5.20;;
19024;SDS011;9645;51.448;6.260;2022-07-04T05:17:39;9.20;;;5.77;;
19024;SDS011;9645;51.448;6.260;2022-07-04T05:20:06;15.40;;;6.03;;
19024;SDS011;9645;51.448;6.260;2022-07-04T05:22:34;15.90;;;5.67;;
19024;SDS011;9645;51.448;6.260;2022-07-04T05:25:01;7.73;;;5.17;;
19024;SDS011;9645;51.448;6.260;2022-07-04T05:27:28;8.53;;;4.50;;
19024;SDS011;9645;51.448;6.260;2022-07-04T05:29:56;11.23;;;4.87;;
19024;SDS011;9645;51.448;6.260;2022-07-04T05:32:23;10.40;;;5.03;;
19024;SDS011;9645;51.448;6.260;2022-07-04T05:34:52;6.73;;;4.50;;
19024;SDS011;9645;51.448;6.260;2022-07-04T05:37:19;11.23;;;4.87;;
19024;SDS011;9645;51.448;6.260;2022-07-04T05:39:46;14.30;;;5.83;;
19024;SDS011;9645;51.448;6.260;2022-07-04T05:42:14;9.37;;;4.73;;
19024;SDS011;9645;51.448;6.260;2022-07-04T05:44:41;10.73;;;4.93;;
19024;SDS011;9645;51.448;6.260;2022-07-04T05:47:08;7.13;;;4.47;;
19024;SDS011;9645;51.448;6.260;2022-07-04T05:49:35;8.67;;;5.20;;
19024;SDS011;9645;51.448;6.260;2022-07-04T05:52:03;8.53;;;4.70;;
19024;SDS011;9645;51.448;6.260;2022-07-04T05:54:31;8.93;;;5.03;;
19024;SDS011;9645;51.448;6.260;2022-07-04T05:56:58;10.50;;;4.50;;
19024;SDS011;9645;51.448;6.260;2022-07-04T05:59:25;10.43;;;4.80;;
19024;SDS011;9645;51.448;6.260;2022-07-04T06:01:54;15.43;;;4.40;;
19024;SDS011;9645;51.448;6.260;2022-07-04T06:04:21;8.40;;;4.40;;
19024;SDS011;9645;51.448;6.260;2022-07-04T06:06:48;6.90;;;3.70;;
19024;SDS011;9645;51.448;6.260;2022-07-04T06:09:16;10.53;;;4.30;;
19024;SDS011;9645;51.448;6.260;2022-07-04T06:11:43;9.33;;;3.90;;
19024;SDS011;9645;51.448;6.260;2022-07-04T06:14:11;4.10;;;3.43;;
19024;SDS011;9645;51.448;6.260;2022-07-04T06:16:38;5.67;;;4.00;;
19024;SDS011;9645;51.448;6.260;2022-07-04T06:19:05;5.73;;;3.47;;
19024;SDS011;9645;51.448;6.260;2022-07-04T06:21:32;8.60;;;3.57;;
19024;SDS011;9645;51.448;6.260;2022-07-04T06:23:59;4.77;;;3.40;;
19024;SDS011;9645;51.448;6.260;2022-07-04T06:26:29;6.20;;;3.40;;
19024;SDS011;9645;51.448;6.260;2022-07-04T06:28:56;7.80;;;3.40;;
19024;SDS011;9645;51.448;6.260;2022-07-04T06:31:23;9.43;;;2.87;;
19024;SDS011;9645;51.448;6.260;2022-07-04T06:33:50;4.77;;;3.03;;
19024;SDS011;9645;51.448;6.260;2022-07-04T06:36:35;3.90;;;2.90;;
19024;SDS011;9645;51.448;6.260;2022-07-04T06:39:02;8.33;;;3.37;;
19024;SDS011;9645;51.448;6.260;2022-07-04T06:41:30;4.03;;;2.87;;
19024;SDS011;9645;51.448;6.260;2022-07-04T06:43:57;5.73;;;2.40;;
19024;SDS011;9645;51.448;6.260;2022-07-04T06:46:24;6.30;;;2.60;;
19024;SDS011;9645;51.448;6.260;2022-07-04T06:48:51;7.43;;;2.63;;
19024;SDS011;9645;51.448;6.260;2022-07-04T06:51:18;7.33;;;2.57;;
19024;SDS011;9645;51.448;6.260;2022-07-04T06:53:45;5.83;;;2.17;;
19024;SDS011;9645;51.448;6.260;2022-07-04T06:56:12;5.90;;;2.70;;
19024;SDS011;9645;51.448;6.260;2022-07-04T06:58:41;7.43;;;2.83;;
19024;SDS011;9645;51.448;6.260;2022-07-04T07:01:08;6.30;;;2.83;;
19024;SDS011;9645;51.448;6.260;2022-07-04T07:03:35;9.03;;;2.93;;
19024;SDS011;9645;51.448;6.260;2022-07-04T07:06:02;6.93;;;3.20;;
19024;SDS011;9645;51.448;6.260;2022-07-04T07:08:29;9.10;;;2.60;;
19024;SDS011;9645;51.448;6.260;2022-07-04T07:10:57;7.87;;;2.70;;
19024;SDS011;9645;51.448;6.260;2022-07-04T07:13:37;12.00;;;4.00;;
19024;SDS011;9645;51.448;6.260;2022-07-04T07:16:06;8.80;;;2.83;;
19024;SDS011;9645;51.448;6.260;2022-07-04T07:18:33;4.70;;;3.13;;
19024;SDS011;9645;51.448;6.260;2022-07-04T07:21:00;8.20;;;3.03;;
19024;SDS011;9645;51.448;6.260;2022-07-04T07:23:27;3.37;;;2.47;;
19024;SDS011;9645;51.448;6.260;2022-07-04T07:25:54;5.73;;;2.20;;
19024;SDS011;9645;51.448;6.260;2022-07-04T07:28:21;5.87;;;2.13;;
19024;SDS011;9645;51.448;6.260;2022-07-04T07:30:48;5.20;;;2.10;;
19024;SDS011;9645;51.448;6.260;2022-07-04T07:33:17;12.83;;;2.23;;
19024;SDS011;9645;51.448;6.260;2022-07-04T07:35:43;7.13;;;1.90;;
19024;SDS011;9645;51.448;6.260;2022-07-04T07:38:11;6.17;;;1.93;;
19024;SDS011;9645;51.448;6.260;2022-07-04T07:40:38;4.53;;;1.93;;
19024;SDS011;9645;51.448;6.260;2022-07-04T07:43:05;4.73;;;1.50;;
19024;SDS011;9645;51.448;6.260;2022-07-04T07:45:32;8.80;;;2.13;;
19024;SDS011;9645;51.448;6.260;2022-07-04T07:47:59;3.67;;;1.70;;
19024;SDS011;9645;51.448;6.260;2022-07-04T07:50:28;6.17;;;1.90;;
19024;SDS011;9645;51.448;6.260;2022-07-04T07:52:55;2.17;;;1.37;;
19024;SDS011;9645;51.448;6.260;2022-07-04T07:55:22;6.23;;;1.40;;
19024;SDS011;9645;51.448;6.260;2022-07-04T07:57:50;6.63;;;2.40;;
19024;SDS011;9645;51.448;6.260;2022-07-04T08:00:18;4.23;;;1.90;;
19024;SDS011;9645;51.448;6.260;2022-07-04T08:02:45;3.03;;;2.17;;
19024;SDS011;9645;51.448;6.260;2022-07-04T08:05:30;2.30;;;1.53;;
19024;SDS011;9645;51.448;6.260;2022-07-04T08:07:57;3.57;;;1.83;;
19024;SDS011;9645;51.448;6.260;2022-07-04T08:10:25;3.90;;;1.53;;
19024;SDS011;9645;51.448;6.260;2022-07-04T08:12:52;4.77;;;1.47;;
19024;SDS011;9645;51.448;6.260;2022-07-04T08:15:21;6.97;;;1.90;;
19024;SDS011;9645;51.448;6.260;2022-07-04T08:17:48;3.37;;;1.63;;
19024;SDS011;9645;51.448;6.260;2022-07-04T08:20:15;5.30;;;2.20;;
19024;SDS011;9645;51.448;6.260;2022-07-04T08:22:43;4.90;;;1.90;;
19024;SDS011;9645;51.448;6.260;2022-07-04T08:25:10;2.50;;;1.93;;
19024;SDS011;9645;51.448;6.260;2022-07-04T08:27:39;2.47;;;1.90;;
19024;SDS011;9645;51.448;6.260;2022-07-04T08:30:06;9.77;;;1.90;;
19024;SDS011;9645;51.448;6.260;2022-07-04T08:32:33;3.40;;;1.50;;
19024;SDS011;9645;51.448;6.260;2022-07-04T08:35:01;4.23;;;1.70;;
19024;SDS011;9645;51.448;6.260;2022-07-04T08:37:28;5.20;;;1.43;;
19024;SDS011;9645;51.448;6.260;2022-07-04T08:39:57;4.70;;;1.30;;
19024;SDS011;9645;51.448;6.260;2022-07-04T08:42:24;5.07;;;1.90;;
19024;SDS011;9645;51.448;6.260;2022-07-04T08:44:53;17.13;;;2.00;;
19024;SDS011;9645;51.448;6.260;2022-07-04T08:47:22;8.87;;;2.07;;
19024;SDS011;9645;51.448;6.260;2022-07-04T08:49:52;9.27;;;1.47;;
19024;SDS011;9645;51.448;6.260;2022-07-04T08:52:28;5.27;;;1.77;;
19024;SDS011;9645;51.448;6.260;2022-07-04T08:55:03;11.37;;;1.80;;
19024;SDS011;9645;51.448;6.260;2022-07-04T08:57:49;2.97;;;1.60;;
19024;SDS011;9645;51.448;6.260;2022-07-04T09:00:35;2.07;;;1.10;;
19024;SDS011;9645;51.448;6.260;2022-07-04T09:03:02;6.87;;;1.30;;
19024;SDS011;9645;51.448;6.260;2022-07-04T09:05:30;4.67;;;1.80;;
19024;SDS011;9645;51.448;6.260;2022-07-04T09:07:58;3.63;;;1.67;;
19024;SDS011;9645;51.448;6.260;2022-07-04T09:10:27;13.83;;;2.07;;
19024;SDS011;9645;51.448;6.260;2022-07-04T09:12:55;2.00;;;1.60;;
19024;SDS011;9645;51.448;6.260;2022-07-04T09:15:22;2.70;;;1.40;;
19024;SDS011;9645;51.448;6.260;2022-07-04T09:17:50;3.03;;;1.40;;
19024;SDS011;9645;51.448;6.260;2022-07-04T09:20:18;7.00;;;1.50;;
19024;SDS011;9645;51.448;6.260;2022-07-04T09:22:47;3.00;;;1.57;;
19024;SDS011;9645;51.448;6.260;2022-07-04T09:25:15;2.57;;;1.33;;
19024;SDS011;9645;51.448;6.260;2022-07-04T09:27:45;2.80;;;1.43;;
19024;SDS011;9645;51.448;6.260;2022-07-04T09:30:14;4.00;;;1.20;;
19024;SDS011;9645;51.448;6.260;2022-07-04T09:32:43;4.80;;;1.30;;
19024;SDS011;9645;51.448;6.260;2022-07-04T09:35:12;3.43;;;1.70;;
19024;SDS011;9645;51.448;6.260;2022-07-04T09:37:42;3.47;;;1.60;;
19024;SDS011;9645;51.448;6.260;2022-07-04T09:40:20;10.10;;;1.50;;
19024;SDS011;9645;51.448;6.260;2022-07-04T09:42:51;5.10;;;2.10;;
19024;SDS011;9645;51.448;6.260;2022-07-04T09:45:19;4.00;;;1.50;;
19024;SDS011;9645;51.448;6.260;2022-07-04T09:47:49;3.70;;;1.63;;
19024;SDS011;9645;51.448;6.260;2022-07-04T09:50:19;4.53;;;1.80;;
19024;SDS011;9645;51.448;6.260;2022-07-04T09:52:49;7.17;;;1.83;;
19024;SDS011;9645;51.448;6.260;2022-07-04T09:55:22;2.50;;;1.50;;
19024;SDS011;9645;51.448;6.260;2022-07-04T09:57:52;6.73;;;1.60;;
19024;SDS011;9645;51.448;6.260;2022-07-04T10:00:21;5.63;;;1.50;;
19024;SDS011;9645;51.448;6.260;2022-07-04T10:02:50;3.40;;;1.73;;
19024;SDS011;9645;51.448;6.260;2022-07-04T10:05:22;7.67;;;2.03;;
19024;SDS011;9645;51.448;6.260;2022-07-04T10:07:51;6.33;;;1.40;;
19024;SDS011;9645;51.448;6.260;2022-07-04T10:10:23;3.33;;;1.40;;
19024;SDS011;9645;51.448;6.260;2022-07-04T10:12:57;2.30;;;1.43;;
19024;SDS011;9645;51.448;6.260;2022-07-04T10:15:25;3.37;;;1.40;;
19024;SDS011;9645;51.448;6.260;2022-07-04T10:17:52;2.93;;;1.27;;
19024;SDS011;9645;51.448;6.260;2022-07-04T10:20:19;2.50;;;1.40;;
19024;SDS011;9645;51.448;6.260;2022-07-04T10:22:47;3.80;;;1.30;;
19024;SDS011;9645;51.448;6.260;2022-07-04T10:25:14;4.63;;;1.50;;
19024;SDS011;9645;51.448;6.260;2022-07-04T10:27:41;3.33;;;1.63;;
19024;SDS011;9645;51.448;6.260;2022-07-04T10:30:11;4.73;;;1.50;;
19024;SDS011;9645;51.448;6.260;2022-07-04T10:32:41;1.43;;;1.33;;
19024;SDS011;9645;51.448;6.260;2022-07-04T10:35:12;7.70;;;1.43;;
19024;SDS011;9645;51.448;6.260;2022-07-04T10:37:59;3.77;;;1.63;;
19024;SDS011;9645;51.448;6.260;2022-07-04T10:40:40;3.30;;;1.10;;
19024;SDS011;9645;51.448;6.260;2022-07-04T10:46:30;4.10;;;1.60;;
19024;SDS011;9645;51.448;6.260;2022-07-04T10:49:08;1.73;;;1.30;;
19024;SDS011;9645;51.448;6.260;2022-07-04T10:51:44;3.03;;;1.60;;
19024;SDS011;9645;51.448;6.260;2022-07-04T10:54:13;3.47;;;1.27;;
19024;SDS011;9645;51.448;6.260;2022-07-04T10:56:49;1.83;;;1.63;;
19024;SDS011;9645;51.448;6.260;2022-07-04T10:59:19;4.30;;;1.60;;
19024;SDS011;9645;51.448;6.260;2022-07-04T11:01:50;2.60;;;1.10;;
19024;SDS011;9645;51.448;6.260;2022-07-04T11:10:30;1.53;;;1.00;;
19024;SDS011;9645;51.448;6.260;2022-07-04T11:13:05;1.27;;;1.17;;
19024;SDS011;9645;51.448;6.260;2022-07-04T11:16:00;1.53;;;1.20;;
19024;SDS011;9645;51.448;6.260;2022-07-04T11:18:30;4.50;;;1.53;;
19024;SDS011;9645;51.448;6.260;2022-07-04T11:21:14;7.20;;;1.57;;
19024;SDS011;9645;51.448;6.260;2022-07-04T11:23:48;3.90;;;1.20;;
19024;SDS011;9645;51.448;6.260;2022-07-04T11:26:16;2.80;;;1.37;;
19024;SDS011;9645;51.448;6.260;2022-07-04T11:28:44;1.90;;;1.50;;
19024;SDS011;9645;51.448;6.260;2022-07-04T11:31:12;3.10;;;1.50;;
19024;SDS011;9645;51.448;6.260;2022-07-04T11:33:42;1.60;;;1.23;;
19024;SDS011;9645;51.448;6.260;2022-07-04T11:36:10;5.07;;;1.50;;
19024;SDS011;9645;51.448;6.260;2022-07-04T11:38:47;1.63;;;1.30;;
19024;SDS011;9645;51.448;6.260;2022-07-04T11:41:20;5.63;;;1.53;;
19024;SDS011;9645;51.448;6.260;2022-07-04T11:44:09;1.40;;;1.30;;
19024;SDS011;9645;51.448;6.260;2022-07-04T11:47:01;3.03;;;1.60;;
19024;SDS011;9645;51.448;6.260;2022-07-04T11:49:31;5.03;;;1.50;;
19024;SDS011;9645;51.448;6.260;2022-07-04T11:51:58;16.23;;;1.70;;
19024;SDS011;9645;51.448;6.260;2022-07-04T11:54:25;10.63;;;1.73;;
19024;SDS011;9645;51.448;6.260;2022-07-04T11:56:52;1.40;;;1.30;;
19024;SDS011;9645;51.448;6.260;2022-07-04T11:59:35;5.63;;;1.50;;
19024;SDS011;9645;51.448;6.260;2022-07-04T12:02:09;1.80;;;1.17;;
19024;SDS011;9645;51.448;6.260;2022-07-04T12:04:39;3.53;;;1.30;;
19024;SDS011;9645;51.448;6.260;2022-07-04T12:07:11;9.90;;;1.43;;
19024;SDS011;9645;51.448;6.260;2022-07-04T12:09:39;3.13;;;1.37;;
19024;SDS011;9645;51.448;6.260;2022-07-04T12:12:06;2.70;;;1.53;;
19024;SDS011;9645;51.448;6.260;2022-07-04T12:14:34;9.33;;;1.60;;
19024;SDS011;9645;51.448;6.260;2022-07-04T12:17:08;4.30;;;1.57;;
19024;SDS011;9645;51.448;6.260;2022-07-04T12:19:38;4.00;;;1.47;;
19024;SDS011;9645;51.448;6.260;2022-07-04T12:22:23;7.47;;;1.60;;
19024;SDS011;9645;51.448;6.260;2022-07-04T12:24:52;14.83;;;1.90;;
19024;SDS011;9645;51.448;6.260;2022-07-04T12:27:19;2.57;;;1.50;;
19024;SDS011;9645;51.448;6.260;2022-07-04T12:29:46;3.80;;;1.50;;
19024;SDS011;9645;51.448;6.260;2022-07-04T12:32:13;2.50;;;1.43;;
19024;SDS011;9645;51.448;6.260;2022-07-04T12:34:42;3.13;;;1.83;;
19024;SDS011;9645;51.448;6.260;2022-07-04T12:37:09;1.37;;;1.27;;
19024;SDS011;9645;51.448;6.260;2022-07-04T12:39:38;1.33;;;1.23;;
19024;SDS011;9645;51.448;6.260;2022-07-04T12:42:06;2.40;;;1.37;;
19024;SDS011;9645;51.448;6.260;2022-07-04T12:44:35;6.10;;;2.30;;
19024;SDS011;9645;51.448;6.260;2022-07-04T12:47:03;9.17;;;1.90;;
19024;SDS011;9645;51.448;6.260;2022-07-04T12:49:30;3.60;;;1.40;;
19024;SDS011;9645;51.448;6.260;2022-07-04T12:52:06;1.70;;;1.40;;
19024;SDS011;9645;51.448;6.260;2022-07-04T12:54:35;4.30;;;1.57;;
19024;SDS011;9645;51.448;6.260;2022-07-04T12:57:10;2.23;;;1.10;;
19024;SDS011;9645;51.448;6.260;2022-07-04T12:59:38;2.33;;;1.33;;
19024;SDS011;9645;51.448;6.260;2022-07-04T13:02:05;6.80;;;1.50;;
19024;SDS011;9645;51.448;6.260;2022-07-04T13:04:33;3.50;;;1.50;;
19024;SDS011;9645;51.448;6.260;2022-07-04T13:07:12;4.23;;;1.43;;
19024;SDS011;9645;51.448;6.260;2022-07-04T13:09:40;2.20;;;1.50;;
19024;SDS011;9645;51.448;6.260;2022-07-04T13:12:08;2.60;;;1.50;;
19024;SDS011;9645;51.448;6.260;2022-07-04T13:14:51;6.43;;;1.50;;
19024;SDS011;9645;51.448;6.260;2022-07-04T13:17:18;2.13;;;1.40;;
19024;SDS011;9645;51.448;6.260;2022-07-04T13:19:46;2.77;;;1.30;;
19024;SDS011;9645;51.448;6.260;2022-07-04T13:22:14;3.20;;;1.60;;
19024;SDS011;9645;51.448;6.260;2022-07-04T13:24:41;3.10;;;1.83;;
19024;SDS011;9645;51.448;6.260;2022-07-04T13:27:08;4.03;;;1.53;;
19024;SDS011;9645;51.448;6.260;2022-07-04T13:29:35;2.63;;;1.23;;
19024;SDS011;9645;51.448;6.260;2022-07-04T13:32:03;1.40;;;1.07;;
19024;SDS011;9645;51.448;6.260;2022-07-04T13:34:30;5.87;;;1.93;;
19024;SDS011;9645;51.448;6.260;2022-07-04T13:36:57;4.93;;;1.80;;
19024;SDS011;9645;51.448;6.260;2022-07-04T13:39:25;2.50;;;2.00;;
19024;SDS011;9645;51.448;6.260;2022-07-04T13:41:52;4.97;;;1.97;;
19024;SDS011;9645;51.448;6.260;2022-07-04T13:44:19;2.87;;;1.80;;
19024;SDS011;9645;51.448;6.260;2022-07-04T13:46:46;6.47;;;2.13;;
19024;SDS011;9645;51.448;6.260;2022-07-04T13:49:14;6.50;;;1.70;;
19024;SDS011;9645;51.448;6.260;2022-07-04T13:51:41;2.83;;;1.93;;
19024;SDS011;9645;51.448;6.260;2022-07-04T13:54:08;4.03;;;2.27;;
19024;SDS011;9645;51.448;6.260;2022-07-04T13:56:37;7.40;;;2.60;;
19024;SDS011;9645;51.448;6.260;2022-07-04T13:59:05;6.57;;;2.63;;
19024;SDS011;9645;51.448;6.260;2022-07-04T14:01:32;5.97;;;2.83;;
19024;SDS011;9645;51.448;6.260;2022-07-04T14:03:59;5.03;;;2.13;;
19024;SDS011;9645;51.448;6.260;2022-07-04T14:06:26;3.77;;;2.20;;
19024;SDS011;9645;51.448;6.260;2022-07-04T14:08:54;5.03;;;2.10;;
19024;SDS011;9645;51.448;6.260;2022-07-04T14:11:21;9.10;;;2.97;;
19024;SDS011;9645;51.448;6.260;2022-07-04T14:13:49;7.97;;;1.93;;
19024;SDS011;9645;51.448;6.260;2022-07-04T14:16:16;4.37;;;1.90;;
19024;SDS011;9645;51.448;6.260;2022-07-04T14:18:43;2.47;;;1.93;;
19024;SDS011;9645;51.448;6.260;2022-07-04T14:21:10;3.23;;;2.07;;
19024;SDS011;9645;51.448;6.260;2022-07-04T14:23:37;2.30;;;2.10;;
19024;SDS011;9645;51.448;6.260;2022-07-04T14:26:08;7.10;;;2.20;;
19024;SDS011;9645;51.448;6.260;2022-07-04T14:28:36;2.80;;;2.33;;
19024;SDS011;9645;51.448;6.260;2022-07-04T14:31:04;4.97;;;2.20;;
19024;SDS011;9645;51.448;6.260;2022-07-04T14:33:32;7.47;;;3.17;;
19024;SDS011;9645;51.448;6.260;2022-07-04T14:35:59;3.20;;;2.17;;
19024;SDS011;9645;51.448;6.260;2022-07-04T14:38:26;5.47;;;2.13;;
19024;SDS011;9645;51.448;6.260;2022-07-04T14:40:53;5.47;;;2.30;;
19024;SDS011;9645;51.448;6.260;2022-07-04T14:43:20;2.50;;;1.87;;
19024;SDS011;9645;51.448;6.260;2022-07-04T14:45:47;2.13;;;2.00;;
19024;SDS011;9645;51.448;6.260;2022-07-04T14:48:16;3.60;;;2.40;;
19024;SDS011;9645;51.448;6.260;2022-07-04T14:50:43;2.93;;;2.70;;
19024;SDS011;9645;51.448;6.260;2022-07-04T14:53:10;7.83;;;2.70;;
19024;SDS011;9645;51.448;6.260;2022-07-04T14:55:37;5.73;;;2.30;;
19024;SDS011;9645;51.448;6.260;2022-07-04T14:58:04;7.03;;;2.30;;
19024;SDS011;9645;51.448;6.260;2022-07-04T15:00:31;9.60;;;2.00;;
19024;SDS011;9645;51.448;6.260;2022-07-04T15:02:58;2.40;;;2.20;;
19024;SDS011;9645;51.448;6.260;2022-07-04T15:05:26;5.90;;;2.17;;
19024;SDS011;9645;51.448;6.260;2022-07-04T15:07:53;5.10;;;2.27;;
19024;SDS011;9645;51.448;6.260;2022-07-04T15:10:21;5.77;;;3.43;;
19024;SDS011;9645;51.448;6.260;2022-07-04T15:12:49;11.00;;;2.90;;
19024;SDS011;9645;51.448;6.260;2022-07-04T15:15:16;18.03;;;3.47;;
19024;SDS011;9645;51.448;6.260;2022-07-04T15:17:45;6.73;;;2.93;;